Time;durP1;ratioP1;P1;durP2;ratioP2;P2;SDS_P1;SDS_P2;PMS_P1;PMS_P2;Temp;Humidity;BMP_temperature;BMP_pressure;BME280_temperature;BME280_humidity;BME280_pressure;Samples;Min_cycle;Max_cycle;Signal;HPM_P1;HPM_P2
2023/09/11 00:01:17;;;;;;;31.17;28.15;;;;;;;19.80;100.00;101347.06;6186288;23;20312;-77
2023/09/11 00:03:42;;;;;;;32.60;29.40;;;;;;;19.74;100.00;101343.22;6185592;23;20328;-77
2023/09/11 00:06:08;;;;;;;30.23;27.30;;;;;;;19.95;100.00;101384.13;6185850;23;20008;-78
2023/09/11 00:08:34;;;;;;;30.77;27.73;;;;;;;19.96;100.00;101380.53;6186172;23;20024;-78
2023/09/11 00:10:59;;;;;;;31.95;28.85;;;;;;;19.91;100.00;101374.91;6185576;23;20009;-78
2023/09/11 00:13:25;;;;;;;32.83;29.70;;;;;;;19.69;100.00;101345.47;6185903;23;20001;-76
2023/09/11 00:15:57;;;;;;;35.15;31.52;;;;;;;19.43;100.00;101308.53;6149278;23;20017;-78
2023/09/11 00:18:25;;;;;;;31.67;28.75;;;;;;;19.69;100.00;101347.25;6185900;23;20008;-78
2023/09/11 00:20:51;;;;;;;34.65;31.13;;;;;;;19.65;100.00;101345.88;6185373;23;20093;-78
2023/09/11 00:23:17;;;;;;;33.08;29.83;;;;;;;19.35;100.00;101316.28;6186120;23;20036;-77
2023/09/11 00:25:43;;;;;;;33.13;29.98;;;;;;;19.70;100.00;101360.22;6186024;23;20005;-77
2023/09/11 00:28:08;;;;;;;34.75;31.30;;;;;;;19.47;100.00;101327.44;6186038;23;20008;-77
2023/09/11 00:30:35;;;;;;;32.85;29.83;;;;;;;19.63;100.00;101356.50;6185672;23;20419;-77
2023/09/11 00:33:01;;;;;;;36.78;32.92;;;;;;;19.56;100.00;101344.09;6186152;23;20001;-78
2023/09/11 00:35:26;;;;;;;34.58;31.25;;;;;;;19.59;100.00;101360.38;6185975;23;20008;-77
2023/09/11 00:37:51;;;;;;;35.22;32.03;;;;;;;19.44;100.00;101338.19;6185638;23;19997;-77
2023/09/11 00:40:17;;;;;;;34.72;31.55;;;;;;;19.55;100.00;101360.75;6185372;23;20047;-77
2023/09/11 00:42:42;;;;;;;35.90;32.53;;;;;;;19.51;100.00;101364.66;6185795;23;20072;-78
2023/09/11 00:45:08;;;;;;;36.42;32.88;;;;;;;19.49;100.00;101355.13;6158570;23;20012;-78
2023/09/11 00:47:34;;;;;;;38.72;34.97;;;;;;;19.43;100.00;101353.06;6185670;23;20450;-78
2023/09/11 00:50:00;;;;;;;35.63;32.22;;;;;;;19.21;100.00;101327.22;6185809;23;20454;-78
2023/09/11 00:52:26;;;;;;;36.35;33.05;;;;;;;19.20;100.00;101328.19;6185535;23;20062;-77
2023/09/11 00:54:53;;;;;;;37.92;34.15;;;;;;;19.24;100.00;101326.91;6185216;23;20374;-77
2023/09/11 00:57:20;;;;;;;36.47;33.00;;;;;;;19.42;100.00;101355.84;6185227;23;20012;-76
2023/09/11 00:59:48;;;;;;;36.75;33.15;;;;;;;19.38;100.00;101350.06;6185396;23;20032;-76
2023/09/11 01:02:14;;;;;;;37.95;34.08;;;;;;;19.36;100.00;101353.78;6185350;23;20375;-77
2023/09/11 01:04:41;;;;;;;36.40;33.00;;;;;;;19.29;100.00;101347.47;6185242;23;20036;-78
2023/09/11 01:07:06;;;;;;;36.20;32.80;;;;;;;19.12;100.00;101323.63;6185864;23;20323;-78
2023/09/11 01:09:33;;;;;;;35.03;31.77;;;;;;;19.24;100.00;101347.88;6185068;23;20005;-78
2023/09/11 01:11:58;;;;;;;34.80;31.38;;;;;;;19.22;100.00;101343.75;6185555;23;20379;-78
2023/09/11 01:14:24;;;;;;;35.53;32.22;;;;;;;19.08;100.00;101337.97;6185487;23;20009;-78
2023/09/11 01:16:56;;;;;;;37.75;34.20;;;;;;;19.12;100.00;101347.19;6185157;23;20013;-78
2023/09/11 01:20:08;;;;;;;37.42;33.55;;;;;;;19.13;100.00;101348.84;6185011;23;20425;-78
2023/09/11 01:22:45;;;;;;;37.10;33.17;;;;;;;19.08;100.00;101348.44;6185115;23;20035;-78
2023/09/11 01:25:16;;;;;;;36.72;32.92;;;;;;;19.05;100.00;101350.50;6185261;23;20012;-78
2023/09/11 01:28:03;;;;;;;36.20;32.53;;;;;;;19.04;100.00;101349.69;6158892;23;20022;-78
2023/09/11 01:30:29;;;;;;;36.97;33.38;;;;;;;18.99;100.00;101353.69;6185002;23;20032;-79
2023/09/11 01:32:55;;;;;;;37.45;33.85;;;;;;;18.97;100.00;101350.38;6185271;23;20009;-79
2023/09/11 01:35:21;;;;;;;36.95;33.42;;;;;;;18.84;100.00;101329.72;6185398;23;20028;-78
2023/09/11 01:37:46;;;;;;;38.20;34.60;;;;;;;18.95;100.00;101342.66;6158307;23;20424;-78
2023/09/11 01:40:11;;;;;;;35.53;32.10;;;;;;;18.82;100.00;101315.94;6184834;23;20005;-78
2023/09/11 01:42:44;;;;;;;37.85;34.13;;;;;;;18.91;100.00;101344.72;6185270;23;20029;-78
2023/09/11 01:45:13;;;;;;;36.53;32.85;;;;;;;18.62;100.00;101302.84;6185438;23;20001;-78
2023/09/11 01:47:38;;;;;;;35.53;32.08;;;;;;;18.54;100.00;101297.44;6184855;23;20013;-78
2023/09/11 01:50:05;;;;;;;35.25;31.88;;;;;;;18.73;100.00;101332.47;6185337;23;20411;-79
2023/09/11 01:52:32;;;;;;;35.20;31.83;;;;;;;18.79;100.00;101334.56;6184755;23;20005;-78
2023/09/11 01:54:58;;;;;;;36.28;32.78;;;;;;;18.61;100.00;101313.44;6185286;23;20012;-78
2023/09/11 01:57:27;;;;;;;35.67;32.17;;;;;;;18.64;100.00;101328.84;6185050;23;20348;-78
2023/09/11 01:59:52;;;;;;;35.20;31.98;;;;;;;18.54;100.00;101314.94;6184545;23;20013;-79
2023/09/11 02:02:18;;;;;;;36.85;33.22;;;;;;;18.69;100.00;101331.94;6158736;23;20084;-79
2023/09/11 02:04:43;;;;;;;34.78;31.48;;;;;;;18.48;100.00;101305.00;6185180;23;20366;-79
2023/09/11 02:07:08;;;;;;;32.35;29.23;;;;;;;18.54;100.00;101313.16;6184863;23;20380;-79
2023/09/11 02:09:34;;;;;;;31.98;29.02;;;;;;;18.49;100.00;101317.16;6184855;23;20032;-79
2023/09/11 02:11:59;;;;;;;32.13;28.92;;;;;;;18.58;100.00;101332.00;6158827;23;20370;-78
2023/09/11 02:14:24;;;;;;;32.53;29.42;;;;;;;18.55;100.00;101332.28;6184653;23;20032;-78
2023/09/11 02:16:50;;;;;;;33.83;30.38;;;;;;;18.51;100.00;101329.13;6184778;23;20009;-78
2023/09/11 02:19:15;;;;;;;32.53;29.33;;;;;;;18.49;100.00;101328.44;6185040;23;20001;-78
2023/09/11 02:21:40;;;;;;;32.33;29.23;;;;;;;18.42;100.00;101316.84;6185309;23;20026;-77
2023/09/11 02:24:06;;;;;;;30.20;27.30;;;;;;;18.20;100.00;101276.09;6185092;23;20313;-79
2023/09/11 02:26:31;;;;;;;30.63;27.52;;;;;;;18.41;100.00;101312.59;6182163;23;20012;-79
2023/09/11 02:28:59;;;;;;;29.90;27.13;;;;;;;18.41;100.00;101309.16;6184452;23;20001;-79
2023/09/11 02:31:24;;;;;;;31.00;27.90;;;;;;;18.35;100.00;101313.13;6184631;23;20033;-80
2023/09/11 02:33:50;;;;;;;31.02;28.02;;;;;;;18.32;100.00;101310.78;6184987;23;20253;-79
2023/09/11 02:36:15;;;;;;;31.42;28.35;;;;;;;18.28;100.00;101307.59;6182616;23;20009;-80
2023/09/11 02:38:40;;;;;;;31.13;28.15;;;;;;;18.26;100.00;101309.53;6184262;23;20043;-77
2023/09/11 02:41:08;;;;;;;30.58;27.60;;;;;;;18.23;100.00;101312.41;6184709;23;20005;-79
2023/09/11 02:43:34;;;;;;;30.30;27.38;;;;;;;17.88;100.00;101260.59;6158700;23;20005;-79
2023/09/11 02:45:59;;;;;;;29.95;27.20;;;;;;;18.18;100.00;101305.91;6157666;23;20364;-79
2023/09/11 02:48:24;;;;;;;32.15;29.08;;;;;;;18.17;100.00;101301.66;6184712;23;20032;-79
2023/09/11 02:50:49;;;;;;;29.45;26.55;;;;;;;17.93;100.00;101275.88;6184698;23;20063;-79
2023/09/11 02:53:16;;;;;;;29.27;26.13;;;;;;;18.00;100.00;101293.53;6184969;23;20423;-79
2023/09/11 02:55:42;;;;;;;29.40;26.60;;;;;;;18.06;100.00;101311.25;6184550;23;20001;-79
2023/09/11 02:58:08;;;;;;;29.23;26.42;;;;;;;18.02;100.00;101298.59;6184939;23;20076;-79
2023/09/11 03:00:37;;;;;;;28.95;26.05;;;;;;;18.01;100.00;101312.63;6184533;23;20091;-79
2023/09/11 03:03:03;;;;;;;29.67;26.88;;;;;;;17.97;100.00;101308.63;6184728;23;20005;-79
2023/09/11 03:05:32;;;;;;;29.50;26.73;;;;;;;17.73;100.00;101278.44;6184484;23;20431;-79
2023/09/11 03:08:01;;;;;;;30.95;27.73;;;;;;;17.86;100.00;101293.88;6184329;23;20009;-79
2023/09/11 03:10:27;;;;;;;29.23;26.33;;;;;;;17.90;100.00;101304.91;6184316;23;20071;-79
2023/09/11 03:12:54;;;;;;;30.38;27.35;;;;;;;17.67;100.00;101265.03;6184405;23;20027;-79
2023/09/11 03:15:19;;;;;;;30.75;27.83;;;;;;;17.65;100.00;101256.50;6184917;23;20007;-79
2023/09/11 03:17:49;;;;;;;31.90;28.85;;;;;;;17.87;100.00;101290.28;6184139;23;20045;-79
2023/09/11 03:20:14;;;;;;;29.98;26.98;;;;;;;17.90;100.00;101290.06;6184413;23;20041;-79
2023/09/11 03:22:40;;;;;;;30.33;27.05;;;;;;;17.37;100.00;101214.47;6184879;23;20300;-79
2023/09/11 03:25:05;;;;;;;29.58;26.75;;;;;;;17.83;100.00;101282.88;6184139;23;20005;-80
2023/09/11 03:27:30;;;;;;;29.70;26.92;;;;;;;17.80;100.00;101290.94;6184323;23;20288;-79
2023/09/11 03:29:56;;;;;;;28.52;25.88;;;;;;;17.67;100.00;101268.47;6158402;23;20052;-79
2023/09/11 03:32:21;;;;;;;29.27;26.45;;;;;;;17.71;100.00;101276.91;6184332;23;20001;-79
2023/09/11 03:34:53;;;;;;;29.17;26.23;;;;;;;17.62;100.00;101262.00;6185038;23;20009;-79
2023/09/11 03:37:19;;;;;;;29.27;26.55;;;;;;;17.67;100.00;101275.47;6184418;23;20008;-79
2023/09/11 03:39:44;;;;;;;27.63;24.95;;;;;;;17.65;100.00;101272.19;6184420;23;20009;-79
2023/09/11 03:42:10;;;;;;;29.98;27.02;;;;;;;17.65;100.00;101270.38;6184776;23;20004;-79
2023/09/11 03:44:35;;;;;;;28.58;25.95;;;;;;;17.62;100.00;101277.66;6185966;23;20435;-79
2023/09/11 03:47:00;;;;;;;29.60;26.70;;;;;;;17.59;100.00;101263.06;6186359;23;20005;-79
2023/09/11 03:49:26;;;;;;;28.45;25.75;;;;;;;17.60;100.00;101256.06;6186182;23;20009;-80
2023/09/11 03:51:51;;;;;;;28.83;26.10;;;;;;;17.36;100.00;101231.09;6186379;23;20001;-79
2023/09/11 03:54:16;;;;;;;30.70;27.70;;;;;;;17.55;100.00;101255.66;6186404;23;20036;-80
2023/09/11 03:56:42;;;;;;;30.92;28.08;;;;;;;17.54;100.00;101246.16;6186587;23;20478;-79
2023/09/11 03:59:07;;;;;;;30.15;27.23;;;;;;;17.51;100.00;101247.25;6186223;23;20009;-79
2023/09/11 04:01:45;;;;;;;29.35;26.52;;;;;;;16.83;100.00;101141.72;6154377;23;20021;-79
2023/09/11 04:04:10;;;;;;;31.73;28.52;;;;;;;17.25;100.00;101219.91;6186491;23;20001;-79
2023/09/11 04:06:45;;;;;;;30.38;27.48;;;;;;;17.48;100.00;101253.53;6186313;23;20004;-79
2023/09/11 04:09:20;;;;;;;30.40;27.45;;;;;;;17.48;100.00;101250.94;6186189;23;20072;-79
2023/09/11 04:11:45;;;;;;;30.13;26.95;;;;;;;17.50;100.00;101248.19;6186499;23;20084;-79
2023/09/11 04:14:10;;;;;;;29.85;25.90;;;;;;;17.48;100.00;101237.06;6186262;23;20040;-79
2023/09/11 04:16:35;;;;;;;31.10;27.88;;;;;;;17.40;100.00;101234.25;6186401;23;20001;-79
2023/09/11 04:19:01;;;;;;;28.60;25.63;;;;;;;17.48;100.00;101237.06;6186021;23;20286;-79
2023/09/11 04:21:27;;;;;;;29.33;26.33;;;;;;;17.42;100.00;101232.38;6185747;23;20005;-79
2023/09/11 04:23:52;;;;;;;28.83;25.77;;;;;;;17.32;100.00;101218.44;6186353;23;20001;-79
2023/09/11 04:26:17;;;;;;;28.95;25.92;;;;;;;17.39;100.00;101225.59;6159412;23;20012;-80
2023/09/11 04:28:43;;;;;;;28.48;25.50;;;;;;;17.36;100.00;101228.50;6186055;23;20005;-80
2023/09/11 04:31:08;;;;;;;28.48;25.67;;;;;;;17.42;100.00;101234.97;6186182;23;20004;-78
2023/09/11 04:33:34;;;;;;;31.27;26.30;;;;;;;17.40;100.00;101229.91;6159221;23;20031;-77
2023/09/11 04:35:59;;;;;;;28.55;25.45;;;;;;;16.36;100.00;101063.06;6171270;23;20017;-78
2023/09/11 04:38:34;;;;;;;31.73;27.45;;;;;;;16.73;100.00;101115.59;6185814;23;20009;-78
2023/09/11 04:41:11;;;;;;;27.35;24.65;;;;;;;16.91;100.00;101152.31;6151307;23;20017;-78
2023/09/11 04:43:49;;;;;;;30.25;27.10;;;;;;;16.88;100.00;101142.13;6156161;23;20017;-79
2023/09/11 04:46:24;;;;;;;29.00;26.00;;;;;;;16.40;100.00;101066.22;6156254;23;20005;-78
2023/09/11 04:48:49;;;;;;;31.33;24.85;;;;;;;17.29;100.00;101216.91;6156038;23;20010;-79
2023/09/11 04:51:14;;;;;;;27.67;24.90;;;;;;;17.31;100.00;101224.63;6156201;23;20383;-78
2023/09/11 04:57:07;;;;;;;;;;;;;;;17.36;100.00;101241.53;6174917;23;20021;-78
2023/09/11 04:59:32;;;;;;;27.10;24.20;;;;;;;16.38;100.00;101094.19;6185746;23;20210;-79
2023/09/11 05:01:57;;;;;;;28.00;25.20;;;;;;;16.08;100.00;101041.06;6186096;23;20036;-79
2023/09/11 05:04:22;;;;;;;27.33;24.38;;;;;;;16.61;100.00;101121.78;6158381;23;20016;-79
2023/09/11 05:13:36;;;;;;;;;;;;;;;17.38;100.00;101242.22;6185971;23;20016;-77
2023/09/11 05:16:13;;;;;;;24.42;20.48;;;;;;;16.72;100.00;101092.25;6185647;23;19908;-79
2023/09/11 05:18:41;;;;;;;26.23;23.35;;;;;;;16.97;100.00;101090.97;6185608;23;20083;-79
2023/09/11 05:21:16;;;;;;;24.50;21.88;;;;;;;17.68;100.00;101175.25;6185626;23;20009;-79
2023/09/11 05:23:55;;;;;;;22.75;20.35;;;;;;;17.35;100.00;101085.03;6185804;23;20028;-78
2023/09/11 05:26:42;;;;;;;25.33;22.83;;;;;;;18.36;100.00;101238.94;6185268;23;20079;-78
2023/09/11 05:39:34;;;;;;;22.38;20.10;;;;;;;17.91;100.00;101087.06;6163509;23;20017;-78
2023/09/11 05:42:00;;;;;;;;;;;;;;;18.94;100.00;101261.66;6185559;23;20005;-77
2023/09/11 05:44:25;;;;;;;23.92;21.38;;;;;;;18.86;100.00;101251.88;6185343;23;19963;-78
2023/09/11 05:46:59;;;;;;;22.17;19.80;;;;;;;18.20;100.00;101147.19;6185147;23;20005;-78
2023/09/11 05:49:34;;;;;;;23.13;20.70;;;;;;;18.60;100.00;101207.16;6185400;23;20011;-77
2023/09/11 05:52:00;;;;;;;22.60;20.30;;;;;;;18.65;100.00;101207.59;6183783;23;20080;-76
2023/09/11 06:04:15;;;;;;;16.92;15.35;;;;;;;18.67;100.00;101106.25;6172559;23;20025;-78
2023/09/11 06:09:28;;;;;;;18.58;14.70;;;;;;;18.98;100.00;101155.75;6178070;23;20447;-78
2023/09/11 06:12:03;;;;;;;18.83;14.35;;;;;;;19.93;100.00;101283.81;6185073;23;20001;-79
2023/09/11 06:14:53;;;;;;;16.25;14.55;;;;;;;20.11;100.00;101278.63;6184608;23;20001;-82
2023/09/11 06:17:40;;;;;;;16.60;13.00;;;;;;;20.29;100.00;101287.34;6122697;23;20356;-80
2023/09/11 06:22:51;;;;;;;17.25;13.95;;;;;;;20.15;100.00;101196.88;6180810;23;20040;-81
2023/09/11 06:25:16;;;;;;;17.00;13.32;;;;;;;20.62;100.00;101158.13;6185015;23;20457;-80
2023/09/11 06:27:51;;;;;;;19.13;12.23;;;;;;;21.87;100.00;101207.47;6184646;23;20080;-80
2023/09/11 06:30:19;;;;;;;15.63;12.15;;;;;;;22.37;95.96;101174.19;6184712;23;20005;-80
2023/09/11 06:32:51;;;;;;;13.52;11.23;;;;;;;22.38;92.94;101134.56;6184585;23;20380;-80
2023/09/11 06:35:28;;;;;;;;;;;;;;;23.74;100.00;101286.41;6185148;23;20048;-80
2023/09/11 06:37:53;;;;;;;15.15;11.55;;;;;;;23.81;86.05;101173.13;6184999;23;19939;-81
2023/09/11 06:40:21;;;;;;;16.88;11.32;;;;;;;24.47;80.51;101184.03;6184751;23;20009;-80
2023/09/11 06:43:01;;;;;;;14.93;10.98;;;;;;;25.17;85.12;101242.66;6157886;23;20005;-80
2023/09/11 06:45:33;;;;;;;12.20;10.23;;;;;;;25.55;77.21;101204.66;6184711;23;20001;-80
2023/09/11 06:48:10;;;;;;;14.52;10.02;;;;;;;26.35;79.15;101293.72;6184883;23;20013;-81
2023/09/11 06:50:38;;;;;;;14.65;9.38;;;;;;;26.56;71.13;101269.94;6184813;23;20012;-81
2023/09/11 06:53:07;;;;;;;13.77;8.45;;;;;;;26.97;71.65;101269.22;6157558;23;20096;-81
2023/09/11 06:55:45;;;;;;;16.23;10.02;;;;;;;27.50;72.35;101286.28;6176890;23;20060;-81
2023/09/11 06:58:11;;;;;;;12.57;8.63;;;;;;;26.52;67.66;101152.09;6158139;23;20008;-81
2023/09/11 07:00:49;;;;;;;11.05;8.50;;;;;;;26.33;72.05;101150.91;6184432;23;20005;-81
2023/09/11 07:03:24;;;;;;;12.13;8.20;;;;;;;27.16;69.81;101257.94;6172533;23;20016;-78
2023/09/11 07:05:52;;;;;;;12.68;7.95;;;;;;;26.83;65.95;101183.47;6185081;23;20135;-81
2023/09/11 07:08:18;;;;;;;14.07;8.68;;;;;;;26.80;62.89;101205.91;6184863;23;20006;-81
2023/09/11 07:19:01;;;;;;;13.00;9.80;;;;;;;23.99;78.87;101273.94;6176089;23;20037;-81
2023/09/11 07:22:05;;;;;;;11.40;9.10;;;;;;;23.41;83.09;101274.31;6129269;23;20021;-78
2023/09/11 07:31:17;;;;;;;14.80;11.38;;;;;;;22.01;90.43;101190.25;6158318;23;20073;-78
2023/09/11 07:37:10;;;;;;;18.65;11.73;;;;;;;21.22;90.97;101093.44;6185274;22;20024;-81
2023/09/11 07:43:09;;;;;;;16.15;12.10;;;;;;;22.32;92.38;101272.88;6145338;23;20024;-78
2023/09/11 07:46:06;;;;;;;16.70;12.48;;;;;;;;;;6171379;23;20025;-80
2023/09/11 07:48:38;;;;;;;15.02;12.98;;;;;;;21.22;92.84;101096.88;6159746;23;20013;-79
2023/09/11 07:51:03;;;;;;;17.60;12.93;;;;;;;21.58;92.57;101162.38;6185156;23;20021;-80
2023/09/11 07:53:30;;;;;;;18.02;12.43;;;;;;;21.46;93.03;101139.03;6186363;23;20005;-80
2023/09/11 07:55:55;;;;;;;16.55;13.00;;;;;;;21.73;93.23;101181.84;6186276;23;20009;-80
2023/09/11 07:58:26;;;;;;;18.35;14.23;;;;;;;22.16;94.14;101249.16;6185846;23;20438;-82
2023/09/11 08:00:54;;;;;;;19.98;13.48;;;;;;;22.55;94.35;101302.00;6185819;23;20036;-80
2023/09/11 08:05:59;;;;;;;19.35;15.63;;;;;;;22.19;93.93;101232.22;6177214;23;20029;-79
2023/09/11 08:08:34;;;;;;;15.52;13.80;;;;;;;22.03;93.12;101196.19;6184239;22;20345;-80
2023/09/11 08:11:27;;;;;;;19.60;15.20;;;;;;;22.47;92.77;101265.16;6176197;23;20021;-79
2023/09/11 08:14:02;;;;;;;17.92;15.73;;;;;;;22.80;92.90;101315.19;6168453;23;20332;-79
2023/09/11 08:16:31;;;;;;;18.00;14.30;;;;;;;21.79;92.01;101147.00;6173372;23;20055;-79
2023/09/11 08:19:17;;;;;;;19.80;17.48;;;;;;;22.84;91.83;101313.91;6126507;23;20076;-79
2023/09/11 08:22:00;;;;;;;17.85;15.27;;;;;;;22.84;91.15;101311.28;6156229;23;20016;-80
2023/09/11 08:24:32;;;;;;;21.90;16.48;;;;;;;22.20;91.38;101205.75;6156115;23;20387;-80
2023/09/11 08:27:00;;;;;;;20.38;15.75;;;;;;;22.19;90.99;101195.41;6156187;23;20064;-80
2023/09/11 08:32:33;;;;;;;19.38;17.13;;;;;;;22.81;92.62;101274.69;6156622;23;20079;-81
2023/09/11 08:36:02;;;;;;;21.85;17.38;;;;;;;23.12;92.29;101306.47;6123471;23;20468;-80
2023/09/11 08:38:59;;;;;;;17.52;15.18;;;;;;;23.18;92.39;101300.53;6123763;23;20024;-80
2023/09/11 08:41:26;;;;;;;19.27;17.23;;;;;;;22.50;92.20;101185.84;6159115;23;20025;-81
2023/09/11 08:43:51;;;;;;;18.17;14.30;;;;;;;22.45;91.21;101167.13;6185188;23;20005;-80
2023/09/11 08:46:17;;;;;;;22.10;17.08;;;;;;;22.84;90.72;101224.38;6185685;23;20031;-79
2023/09/11 08:48:55;;;;;;;21.13;15.55;;;;;;;23.41;91.10;101312.03;6185723;23;20001;-80
2023/09/11 08:51:41;;;;;;;19.30;15.82;;;;;;;22.88;90.42;101218.59;6159266;23;20456;-80
2023/09/11 08:54:09;;;;;;;15.60;14.00;;;;;;;22.77;90.57;101189.94;6159659;23;20013;-80
2023/09/11 08:56:40;;;;;;;22.25;16.38;;;;;;;23.45;88.67;101300.16;6185731;23;20009;-84
2023/09/11 08:59:18;;;;;;;23.55;16.92;;;;;;;23.54;86.68;101313.31;6185342;23;20001;-81
2023/09/11 09:02:03;;;;;;;17.75;15.15;;;;;;;22.92;89.08;101205.94;6185293;23;20088;-81
2023/09/11 09:04:34;;;;;;;19.10;15.45;;;;;;;22.92;88.14;101205.09;6158892;23;20004;-80
2023/09/11 09:07:01;;;;;;;;;;;;;;;23.72;90.38;101320.03;6186275;23;20025;-80
2023/09/11 09:09:40;;;;;;;17.88;15.43;;;;;;;23.48;89.06;101267.34;6185496;23;20242;-78
2023/09/11 09:12:11;;;;;;;17.83;15.00;;;;;;;23.28;89.86;101202.84;6185347;23;20008;-79
2023/09/11 09:17:06;;;;;;;17.67;15.52;;;;;;;23.81;86.87;101277.81;6180386;22;20021;-78
2023/09/11 09:19:32;;;;;;;20.67;15.57;;;;;;;23.73;86.61;101260.19;6180079;23;20100;-80
2023/09/11 09:25:02;;;;;;;21.77;15.35;;;;;;;23.19;86.41;101152.81;6185395;23;20064;-80
2023/09/11 09:27:30;;;;;;;16.35;14.63;;;;;;;23.48;86.01;101183.81;6159108;23;20009;-79
2023/09/11 09:29:59;;;;;;;17.02;13.77;;;;;;;23.96;84.71;101254.97;6181873;23;20017;-79
2023/09/11 09:32:37;;;;;;;18.98;15.07;;;;;;;23.83;85.59;101234.44;6185195;23;20084;-79
2023/09/11 09:35:06;;;;;;;17.80;13.00;;;;;;;24.17;83.92;101294.75;6155532;23;20017;-79
2023/09/11 09:38:00;;;;;;;19.25;13.55;;;;;;;24.40;84.50;101325.66;6185566;23;20009;-79
2023/09/11 09:40:30;;;;;;;17.17;14.65;;;;;;;24.22;81.87;101284.50;6184761;23;20067;-79
2023/09/11 09:43:17;;;;;;;16.13;12.50;;;;;;;24.55;83.50;101321.25;6184801;23;20001;-80
2023/09/11 09:45:54;;;;;;;15.15;12.82;;;;;;;23.80;82.80;101183.88;6184389;23;20036;-81
2023/09/11 09:51:06;;;;;;;14.93;10.85;;;;;;;23.86;81.72;101176.06;6175721;23;20026;-80
2023/09/11 09:53:34;;;;;;;18.52;12.13;;;;;;;24.78;81.28;101321.28;6184936;23;20001;-80
2023/09/11 09:56:30;;;;;;;15.07;12.25;;;;;;;24.80;81.12;101317.44;6165421;23;20014;-79
2023/09/11 09:59:28;;;;;;;14.23;11.35;;;;;;;24.83;80.89;101311.81;6184808;23;20017;-79
2023/09/11 10:01:54;;;;;;;14.85;11.23;;;;;;;24.24;80.09;101198.03;6184861;23;20001;-78
2023/09/11 10:04:20;;;;;;;13.95;11.32;;;;;;;24.74;79.82;101275.88;6181261;23;20021;-78
2023/09/11 10:07:07;;;;;;;15.68;12.27;;;;;;;24.98;79.99;101313.69;6144843;23;20048;-79
2023/09/11 10:09:45;;;;;;;18.50;11.35;;;;;;;24.99;79.11;101321.41;6178039;22;20079;-79
2023/09/11 10:12:21;;;;;;;14.85;12.20;;;;;;;25.01;78.94;101322.06;6153245;23;20343;-79
2023/09/11 10:18:23;;;;;;;13.88;10.20;;;;;;;24.52;80.63;101200.16;6157965;23;20394;-79
2023/09/11 10:20:51;;;;;;;16.42;12.50;;;;;;;25.18;78.54;101291.03;6184797;23;20009;-79
2023/09/11 10:23:16;;;;;;;16.77;11.30;;;;;;;25.02;77.26;101268.22;6183746;23;20001;-78
2023/09/11 10:25:50;;;;;;;16.02;9.73;;;;;;;25.36;78.18;101312.63;6185728;23;20004;-78
2023/09/11 10:28:41;;;;;;;16.27;10.15;;;;;;;24.88;77.09;101224.09;6185145;23;20001;-79
2023/09/11 10:31:31;;;;;;;;;;;;;;;25.43;77.20;101300.34;6151685;23;20573;-79
2023/09/11 10:34:00;;;;;;;12.88;8.07;;;;;;;25.31;73.29;101283.28;6152920;23;19916;-79
2023/09/11 10:36:47;;;;;;;12.40;8.10;;;;;;;25.00;74.25;101220.00;6152438;23;20036;-80
2023/09/11 10:39:27;;;;;;;15.52;8.85;;;;;;;24.61;75.45;101143.63;6166400;23;20017;-79
2023/09/11 10:41:56;;;;;;;11.90;7.43;;;;;;;25.59;73.24;101290.59;6184911;23;20005;-78
2023/09/11 10:44:21;;;;;;;11.43;7.68;;;;;;;25.15;71.16;101222.66;6184721;23;20001;-76
2023/09/11 10:46:52;;;;;;;12.57;7.85;;;;;;;25.27;71.80;101239.72;6184585;23;20004;-78
2023/09/11 10:50:10;;;;;;;10.55;7.55;;;;;;;24.85;70.43;101156.56;6184412;23;20379;-78
2023/09/11 10:52:25;;;;;;;8.35;7.07;;;;;;;24.81;72.24;101144.75;6168615;23;20009;-79
2023/09/11 10:54:53;;;;;;;11.85;7.68;;;;;;;25.14;70.62;101186.66;6186642;23;20083;-80
2023/09/11 10:59:59;;;;;;;13.98;8.32;;;;;;;25.89;70.94;101289.56;6184112;23;20028;-80
2023/09/11 11:02:25;;;;;;;10.75;7.60;;;;;;;25.89;71.89;101292.22;6186495;23;20009;-79
2023/09/11 11:05:32;;;;;;;11.75;7.63;;;;;;;25.25;70.75;101162.41;6186726;23;20378;-79
2023/09/11 11:08:21;;;;;;;14.40;7.80;;;;;;;26.01;70.69;101284.59;6095343;23;20011;-79
2023/09/11 11:10:50;;;;;;;11.73;8.25;;;;;;;26.01;68.67;101285.44;5953865;24;20015;-79
2023/09/11 11:13:22;;;;;;;13.00;8.02;;;;;;;25.52;69.38;101207.69;6108972;23;20490;-79
2023/09/11 11:16:32;;;;;;;11.70;8.52;;;;;;;25.83;71.58;101247.16;6186445;23;20430;-79
2023/09/11 11:18:57;;;;;;;12.50;8.35;;;;;;;25.49;70.32;101179.81;6186477;23;20491;-80
2023/09/11 11:21:23;;;;;;;12.10;7.82;;;;;;;25.43;69.61;101168.13;6186313;23;20040;-79
2023/09/11 11:24:04;;;;;;;14.05;8.30;;;;;;;26.11;69.88;101276.38;6186770;23;20005;-79
2023/09/11 11:27:03;;;;;;;10.85;8.02;;;;;;;25.28;70.14;101150.69;6160635;23;20009;-78
2023/09/11 11:29:29;;;;;;;11.95;8.23;;;;;;;25.48;69.58;101174.72;6095209;23;20025;-78
2023/09/11 11:31:57;;;;;;;12.75;8.32;;;;;;;25.85;68.60;101224.78;6095242;23;20388;-80
2023/09/11 11:37:16;;;;;;;10.80;8.50;;;;;;;25.54;71.51;101158.88;6183873;23;20024;-79
2023/09/11 11:39:42;;;;;;;11.95;7.78;;;;;;;25.70;68.36;101185.16;6186287;23;20296;-80
2023/09/11 11:42:07;;;;;;;12.27;8.00;;;;;;;25.56;67.36;101146.28;6186537;23;20013;-80
2023/09/11 11:44:49;;;;;;;11.52;7.97;;;;;;;25.63;69.22;101149.03;6186363;23;20008;-79
2023/09/11 11:47:33;;;;;;;10.20;8.02;;;;;;;26.38;68.89;101259.78;6186290;23;20025;-78
2023/09/11 11:50:20;;;;;;;14.00;8.07;;;;;;;26.52;68.56;101274.75;6186360;23;20009;-80
2023/09/11 11:52:46;;;;;;;12.75;8.57;;;;;;;25.90;67.78;101161.56;6186503;23;20041;-78
2023/09/11 11:55:30;;;;;;;11.52;8.00;;;;;;;26.10;68.61;101190.03;6186295;23;20008;-80
2023/09/11 11:58:12;;;;;;;13.52;8.50;;;;;;;26.64;68.41;101268.94;6156848;23;20422;-79
2023/09/11 12:01:04;;;;;;;13.38;7.90;;;;;;;26.68;68.37;101271.03;6125135;23;20013;-80
2023/09/11 12:06:05;;;;;;;12.05;7.50;;;;;;;26.08;68.38;101142.59;6183532;23;20021;-80
2023/09/11 12:08:44;;;;;;;12.73;8.23;;;;;;;26.09;68.35;101146.88;6160230;23;20363;-79
2023/09/11 12:11:10;;;;;;;12.82;8.13;;;;;;;26.52;66.58;101207.72;6185990;23;20336;-79
2023/09/11 12:13:50;;;;;;;11.18;7.93;;;;;;;26.16;68.57;101141.63;6186145;23;20009;-80
2023/09/11 12:16:31;;;;;;;14.32;8.48;;;;;;;26.40;64.78;101183.59;6186332;23;20005;-81
2023/09/11 12:18:57;;;;;;;12.10;7.57;;;;;;;26.81;66.45;101231.38;6185312;23;20346;-78
2023/09/11 12:21:43;;;;;;;12.57;8.57;;;;;;;26.29;66.16;101149.69;6185738;23;20005;-80
2023/09/11 12:27:15;;;;;;;9.90;7.20;;;;;;;26.55;66.99;101194.13;6179457;23;20028;-78
2023/09/11 12:29:51;;;;;;;11.45;7.05;;;;;;;27.11;66.18;101263.00;6186178;23;20450;-81
2023/09/11 12:32:16;;;;;;;10.20;7.05;;;;;;;26.44;63.02;101157.53;6185407;23;20001;-78
2023/09/11 12:34:48;;;;;;;11.88;6.90;;;;;;;26.73;63.50;101209.50;6185824;23;20015;-81
2023/09/11 12:37:22;;;;;;;11.68;6.20;;;;;;;26.14;63.97;101114.50;6184181;23;20025;-81
2023/09/11 12:39:48;;;;;;;7.95;5.05;;;;;;;26.67;64.85;101194.41;6185844;23;20005;-81
2023/09/11 12:42:20;;;;;;;9.38;5.53;;;;;;;27.12;62.54;101260.16;6185987;23;20423;-81
2023/09/11 12:44:47;;;;;;;7.25;4.90;;;;;;;26.41;59.06;101157.94;6185810;23;20005;-82
2023/09/11 12:47:16;;;;;;;8.48;5.35;;;;;;;27.13;59.83;101268.94;6185682;23;20009;-82
2023/09/11 12:49:48;;;;;;;9.73;5.60;;;;;;;27.09;62.00;101265.84;6185588;23;20005;-81
2023/09/11 12:52:13;;;;;;;8.55;5.00;;;;;;;26.55;61.31;101184.34;6185724;23;20012;-81
2023/09/11 12:54:41;;;;;;;10.32;5.05;;;;;;;26.64;60.75;101181.53;6185842;23;20005;-81